Time;durP1;ratioP1;P1;durP2;ratioP2;P2;SDS_P1;SDS_P2;PMS_P1;PMS_P2;Temp;Humidity;BMP_temperature;BMP_pressure;BME280_temperature;BME280_humidity;BME280_pressure;Samples;Min_cycle;Max_cycle;Signal;HPM_P1;HPM_P2
2022/04/22 00:01:47;;;;;;;1.23;1.23;;;9.20;58.10;8.60;97161.00;;;;5113294;28;20224;-78
2022/04/22 00:04:14;;;;;;;1.37;1.27;;;9.20;58.30;8.60;97147.00;;;;5113222;28;20237;-78
2022/04/22 00:06:43;;;;;;;0.80;0.80;;;9.20;58.20;8.50;97150.00;;;;5113308;28;20229;-78
2022/04/22 00:09:09;;;;;;;0.80;0.80;;;9.20;58.80;8.60;97150.00;;;;5095426;28;20210;-78
2022/04/22 00:11:36;;;;;;;0.97;0.97;;;9.20;59.00;8.50;97133.00;;;;5113324;28;20186;-77
2022/04/22 00:14:06;;;;;;;1.83;1.40;;;9.10;59.20;8.40;97141.00;;;;5112923;28;20253;-76
2022/04/22 00:16:33;;;;;;;1.83;1.73;;;9.10;59.10;8.30;97136.00;;;;5116843;28;20285;-78
2022/04/22 00:19:00;;;;;;;1.17;1.07;;;9.00;59.70;8.20;97146.00;;;;5116683;28;20194;-78
2022/04/22 00:21:29;;;;;;;1.27;1.17;;;8.90;59.10;8.20;97139.00;;;;5116511;28;20198;-78
2022/04/22 00:23:55;;;;;;;1.93;1.23;;;8.90;59.40;8.20;97141.00;;;;5116506;28;20194;-77
2022/04/22 00:26:24;;;;;;;1.07;1.07;;;8.90;59.50;8.20;97132.00;;;;5116362;28;20205;-77
2022/04/22 00:28:54;;;;;;;0.90;0.90;;;8.80;59.40;8.10;97139.00;;;;5116503;28;20587;-78
2022/04/22 00:31:23;;;;;;;0.80;0.80;;;8.70;60.00;8.00;97133.00;;;;5098399;28;20208;-77
2022/04/22 00:33:49;;;;;;;1.87;1.77;;;8.70;60.20;8.00;97125.00;;;;5098192;28;20236;-77
2022/04/22 00:36:16;;;;;;;1.43;1.37;;;8.60;60.40;7.80;97137.00;;;;5116295;28;20255;-78
2022/04/22 00:38:42;;;;;;;1.17;1.17;;;8.60;60.40;7.90;97126.00;;;;5116252;28;20217;-78
2022/04/22 00:41:08;;;;;;;1.43;1.33;;;8.60;61.00;7.80;97126.00;;;;5116123;28;20304;-78
2022/04/22 00:43:42;;;;;;;0.97;0.97;;;8.60;61.10;7.80;97123.00;;;;5098250;28;20234;-77
2022/04/22 00:46:13;;;;;;;1.13;1.13;;;8.50;61.60;7.70;97129.00;;;;5116145;28;20244;-78
2022/04/22 00:48:39;;;;;;;0.90;0.90;;;8.50;62.10;7.80;97132.00;;;;5098055;28;20218;-78
2022/04/22 00:51:07;;;;;;;1.23;1.13;;;8.50;62.30;7.70;97130.00;;;;5116056;28;20190;-78
2022/04/22 00:53:35;;;;;;;1.23;1.23;;;8.40;62.10;8.00;97115.00;;;;5115996;28;20661;-78
2022/04/22 00:56:05;;;;;;;1.80;1.70;;;8.50;63.00;7.90;97124.00;;;;5116235;28;20210;-78
2022/04/22 00:58:35;;;;;;;1.63;1.10;;;8.60;62.40;8.00;97118.00;;;;5116141;28;20193;-78
2022/04/22 01:01:02;;;;;;;3.47;1.37;;;8.60;62.50;7.70;97115.00;;;;5116092;28;20266;-78
2022/04/22 01:03:29;;;;;;;1.20;1.10;;;8.50;62.20;7.50;97108.00;;;;5097867;28;20225;-78
2022/04/22 01:11:31;;;;;;;1.70;1.60;;;8.30;63.70;7.50;97095.00;;;;5115781;28;20205;-77
2022/04/22 01:13:59;;;;;;;1.00;1.00;;;8.20;64.00;7.50;97091.00;;;;5097708;28;20566;-78
2022/04/22 01:16:26;;;;;;;1.80;1.23;;;8.30;64.30;7.60;97094.00;;;;5097636;28;20359;-78
2022/04/22 01:18:53;;;;;;;2.07;1.70;;;8.20;64.50;7.50;97088.00;;;;5115542;28;20221;-78
2022/04/22 01:21:20;;;;;;;1.83;1.73;;;8.30;64.70;7.40;97084.00;;;;5115718;28;20221;-78
2022/04/22 01:23:47;;;;;;;1.60;1.50;;;8.30;65.10;7.60;97089.00;;;;5114161;28;20279;-78
2022/04/22 01:26:16;;;;;;;1.30;1.30;;;8.30;65.20;7.60;97063.00;;;;5114853;28;20198;-78
2022/04/22 01:28:43;;;;;;;1.03;1.03;;;8.30;65.30;7.50;97083.00;;;;5115459;28;20220;-78
2022/04/22 01:31:10;;;;;;;1.27;1.27;;;8.30;65.20;7.50;97078.00;;;;5115450;28;20213;-77
2022/04/22 01:33:36;;;;;;;1.30;1.30;;;8.30;65.30;7.60;97067.00;;;;5097609;28;20549;-78
2022/04/22 01:36:03;;;;;;;4.10;1.47;;;8.30;65.50;7.60;97056.00;;;;5115364;28;20235;-78
2022/04/22 01:38:31;;;;;;;1.83;1.73;;;8.40;65.50;7.70;97068.00;;;;5115600;28;20272;-78
2022/04/22 01:40:59;;;;;;;0.83;0.83;;;8.40;65.60;7.70;97057.00;;;;5115101;28;20247;-77
2022/04/22 01:43:29;;;;;;;1.17;1.17;;;8.40;65.30;7.80;97061.00;;;;5097194;28;20222;-77
2022/04/22 01:45:58;;;;;;;0.77;0.77;;;8.50;65.40;7.70;97063.00;;;;5097056;28;20201;-78
2022/04/22 01:48:27;;;;;;;1.57;1.47;;;8.40;65.20;7.70;97032.00;;;;5115115;28;20697;-78
2022/04/22 01:50:54;;;;;;;0.77;0.77;;;8.40;65.40;7.70;97059.00;;;;5115103;28;20185;-77
2022/04/22 01:53:20;;;;;;;1.07;1.07;;;8.40;65.20;7.60;97053.00;;;;5115119;28;20665;-77
2022/04/22 01:55:48;;;;;;;1.40;1.30;;;8.40;65.00;7.60;97048.00;;;;5097265;28;20630;-77
2022/04/22 01:58:14;;;;;;;1.50;1.40;;;8.30;64.60;7.60;97040.00;;;;5114962;28;20277;-77
2022/04/22 02:00:41;;;;;;;1.40;1.30;;;8.30;64.50;7.50;97037.00;;;;5096924;28;20222;-78
2022/04/22 02:03:07;;;;;;;0.90;0.90;;;8.20;64.50;7.40;97039.00;;;;5096855;28;20253;-77
2022/04/22 02:05:34;;;;;;;1.00;1.00;;;8.10;64.80;7.30;97042.00;;;;5114789;28;20194;-77
2022/04/22 02:08:01;;;;;;;1.27;1.27;;;8.00;65.10;7.40;97041.00;;;;5096811;28;20251;-77
2022/04/22 02:10:29;;;;;;;1.33;1.23;;;8.10;65.70;7.40;97033.00;;;;5114816;28;20190;-77
2022/04/22 02:12:57;;;;;;;1.63;1.53;;;8.10;65.20;7.30;97024.00;;;;5096880;28;20221;-78
2022/04/22 02:15:26;;;;;;;1.53;1.43;;;8.10;65.30;7.40;97031.00;;;;5114785;28;20288;-78
2022/04/22 02:17:53;;;;;;;1.37;1.37;;;8.10;65.60;7.40;97019.00;;;;5114764;28;20221;-78
2022/04/22 02:20:19;;;;;;;0.87;0.87;;;8.00;65.80;7.40;97029.00;;;;5114647;28;20233;-77
2022/04/22 02:22:48;;;;;;;2.07;1.87;;;8.00;65.80;7.50;97030.00;;;;5096571;28;20589;-77
2022/04/22 02:25:15;;;;;;;1.10;1.10;;;8.10;65.60;7.40;97024.00;;;;5114716;28;20217;-78
2022/04/22 02:30:30;;;;;;;1.33;1.23;;;8.10;65.40;7.50;97019.00;;;;5114563;28;20321;-78
2022/04/22 02:32:57;;;;;;;1.30;1.30;;;8.10;65.30;7.40;97016.00;;;;5114316;28;20236;-78
2022/04/22 02:35:23;;;;;;;1.43;1.37;;;8.10;65.40;7.40;97018.00;;;;5114345;28;20687;-77
2022/04/22 02:37:50;;;;;;;1.13;1.13;;;8.00;65.40;7.40;97010.00;;;;5113351;28;20259;-78
2022/04/22 02:45:52;;;;;;;1.67;1.57;;;7.90;65.40;7.20;96998.00;;;;5114303;28;20668;-77
2022/04/22 02:48:21;;;;;;;1.27;1.20;;;7.90;65.40;7.20;97009.00;;;;5114263;28;20649;-77
2022/04/22 02:50:48;;;;;;;1.00;0.93;;;7.90;65.50;7.20;97004.00;;;;5114317;28;20790;-77
2022/04/22 02:53:14;;;;;;;1.17;1.17;;;7.80;65.70;7.10;96999.00;;;;5114505;28;20233;-77
2022/04/22 02:55:48;;;;;;;1.10;1.10;;;7.80;65.70;7.20;97004.00;;;;5114818;28;20698;-78
2022/04/22 02:58:15;;;;;;;1.43;1.33;;;7.80;65.90;7.20;96986.00;;;;5115086;28;20205;-78
2022/04/22 03:00:44;;;;;;;2.27;1.93;;;7.80;65.70;7.10;96984.00;;;;5121438;28;20212;-78
2022/04/22 03:03:12;;;;;;;1.60;1.50;;;7.70;65.30;7.10;96986.00;;;;5117790;28;20221;-78
2022/04/22 03:05:41;;;;;;;1.30;1.20;;;7.80;66.00;7.00;96988.00;;;;5119176;28;20202;-78
2022/04/22 03:08:08;;;;;;;0.80;0.80;;;7.70;65.50;6.90;96973.00;;;;5114312;28;20194;-78
2022/04/22 03:10:35;;;;;;;2.10;1.90;;;7.70;65.80;7.00;96979.00;;;;5114297;28;20352;-79
2022/04/22 03:13:03;;;;;;;2.77;2.57;;;7.60;65.80;6.90;96975.00;;;;5095988;28;20231;-78
2022/04/22 03:15:32;;;;;;;0.97;0.97;;;7.60;66.50;7.00;96970.00;;;;5113913;28;20201;-78
2022/04/22 03:17:59;;;;;;;1.43;1.33;;;7.60;66.60;7.00;96972.00;;;;5113851;28;20231;-78
2022/04/22 03:20:28;;;;;;;1.33;1.33;;;7.60;66.50;7.00;96975.00;;;;5113756;28;20249;-78
2022/04/22 03:22:55;;;;;;;1.17;1.17;;;7.60;66.70;6.90;96965.00;;;;5113695;28;20275;-78
2022/04/22 03:25:22;;;;;;;1.30;1.30;;;7.60;67.00;6.90;96963.00;;;;5113842;28;20235;-78
2022/04/22 03:27:50;;;;;;;1.63;1.53;;;7.60;66.30;6.90;96965.00;;;;5096069;28;20218;-78
2022/04/22 03:30:19;;;;;;;1.03;1.03;;;7.50;66.60;6.70;96961.00;;;;5113799;28;20194;-78
2022/04/22 03:32:48;;;;;;;2.13;2.03;;;7.50;66.10;6.70;96963.00;;;;5095922;28;20282;-78
2022/04/22 03:35:15;;;;;;;1.30;1.27;;;7.50;67.20;6.60;96964.00;;;;5113574;28;20198;-78
2022/04/22 03:37:42;;;;;;;0.97;0.97;;;7.30;67.60;6.60;96967.00;;;;5112667;28;20194;-78
2022/04/22 03:40:10;;;;;;;2.97;2.77;;;7.30;68.30;6.50;96954.00;;;;5113553;28;20232;-79
2022/04/22 03:42:40;;;;;;;1.70;1.60;;;7.30;69.00;6.50;96964.00;;;;5113744;28;20222;-78
2022/04/22 03:45:08;;;;;;;1.90;1.80;;;7.20;69.60;6.40;96973.00;;;;5096354;28;20197;-78
2022/04/22 03:47:34;;;;;;;2.13;2.00;;;7.10;69.60;6.50;96965.00;;;;5117783;28;20197;-77
2022/04/22 03:50:01;;;;;;;1.83;1.73;;;7.20;70.70;6.50;96964.00;;;;5125439;28;20621;-78
2022/04/22 03:52:30;;;;;;;1.83;1.73;;;7.10;70.20;6.30;96966.00;;;;5121339;28;20222;-79
2022/04/22 03:54:57;;;;;;;1.57;1.47;;;7.10;69.80;6.50;96965.00;;;;5120407;28;20283;-79
2022/04/22 04:00:09;;;;;;;2.03;1.83;;;7.10;70.60;6.50;96960.00;;;;5116989;28;20232;-79
2022/04/22 04:02:36;;;;;;;1.00;1.00;;;7.10;70.40;6.50;96960.00;;;;5116808;28;20221;-78
2022/04/22 04:05:03;;;;;;;1.43;1.33;;;7.20;70.00;6.50;96963.00;;;;5116824;28;20197;-79
2022/04/22 04:07:32;;;;;;;2.33;1.20;;;7.10;69.60;6.40;96956.00;;;;5116832;28;20197;-78
2022/04/22 04:18:13;;;;;;;1.13;1.13;;;7.00;69.50;6.30;96961.00;;;;5115673;28;20216;-77
2022/04/22 04:23:26;;;;;;;1.00;1.00;;;6.90;69.40;6.20;96963.00;;;;5116442;28;20217;-78
2022/04/22 04:25:54;;;;;;;1.97;1.87;;;6.90;69.40;6.10;96969.00;;;;5116461;28;20224;-78
2022/04/22 04:28:23;;;;;;;2.43;2.23;;;6.80;69.50;6.10;96968.00;;;;5116744;28;20214;-77
2022/04/22 04:30:49;;;;;;;1.27;1.27;;;6.80;69.90;6.10;96960.00;;;;5116461;28;20685;-78
2022/04/22 04:33:18;;;;;;;1.63;1.53;;;6.80;70.10;6.30;96960.00;;;;5116295;28;20653;-77
2022/04/22 04:35:46;;;;;;;3.47;2.33;;;6.80;70.80;6.20;96964.00;;;;5116284;28;20206;-77
2022/04/22 04:38:13;;;;;;;1.57;1.43;;;6.90;70.20;6.20;96963.00;;;;5116285;28;20197;-77
2022/04/22 04:40:40;;;;;;;1.20;1.20;;;6.80;69.80;6.20;96962.00;;;;5116226;28;20652;-77
2022/04/22 04:43:08;;;;;;;1.83;1.73;;;6.80;69.70;6.10;96960.00;;;;5116235;28;20236;-77
2022/04/22 04:45:35;;;;;;;4.47;1.30;;;6.80;69.60;6.10;96961.00;;;;5116121;28;20320;-77
2022/04/22 04:48:02;;;;;;;1.67;1.67;;;6.80;69.60;6.10;96961.00;;;;5116124;28;20194;-78
2022/04/22 04:50:31;;;;;;;2.17;1.97;;;6.80;68.90;6.00;96966.00;;;;5098229;28;20238;-77
2022/04/22 04:52:59;;;;;;;1.63;1.53;;;6.70;69.00;6.10;96969.00;;;;5115973;28;20645;-77
2022/04/22 04:55:26;;;;;;;5.13;1.77;;;6.70;68.90;6.00;96968.00;;;;5098326;28;20561;-78
2022/04/22 04:57:53;;;;;;;2.63;1.80;;;6.70;69.50;6.00;96968.00;;;;5115985;28;20296;-78
2022/04/22 05:00:23;;;;;;;3.43;2.10;;;6.70;70.10;6.10;96971.00;;;;5114956;28;20709;-77
2022/04/22 05:02:50;;;;;;;1.07;1.07;;;6.70;70.30;6.10;96973.00;;;;5116046;28;20333;-78
2022/04/22 05:05:17;;;;;;;1.37;1.37;;;6.80;70.20;6.20;96971.00;;;;5115802;28;20685;-77
2022/04/22 05:07:51;;;;;;;2.90;2.23;;;6.80;70.30;6.00;96978.00;;;;5115823;28;20569;-77
2022/04/22 05:10:18;;;;;;;0.93;0.93;;;6.70;70.00;6.10;96971.00;;;;5115882;28;20197;-78
2022/04/22 05:12:49;;;;;;;2.63;1.33;;;6.70;70.80;6.20;96978.00;;;;5115627;28;20581;-77
2022/04/22 05:15:17;;;;;;;1.53;1.53;;;6.80;70.50;6.30;96973.00;;;;5115700;28;20238;-78
2022/04/22 05:17:48;;;;;;;1.23;1.23;;;6.90;71.10;6.40;96972.00;;;;5115754;28;20200;-76
2022/04/22 05:20:17;;;;;;;1.27;1.27;;;7.00;71.10;6.40;96957.00;;;;5115510;28;20248;-78
2022/04/22 05:22:44;;;;;;;2.07;1.97;;;7.00;70.60;6.20;96968.00;;;;5115460;28;20312;-77
2022/04/22 05:25:13;;;;;;;1.03;1.03;;;7.00;70.60;6.40;96957.00;;;;5115428;28;20656;-78
2022/04/22 05:27:40;;;;;;;2.13;1.33;;;7.00;70.70;6.40;96952.00;;;;5115545;28;20665;-78
2022/04/22 05:33:00;;;;;;;1.67;1.57;;;7.10;70.40;6.40;96957.00;;;;5115314;28;20229;-77
2022/04/22 05:35:30;;;;;;;6.13;2.77;;;7.10;70.50;6.50;96957.00;;;;5097368;28;20208;-77
2022/04/22 05:37:58;;;;;;;2.10;2.00;;;7.10;70.70;6.50;96958.00;;;;5115293;28;20209;-77
2022/04/22 05:40:28;;;;;;;2.67;2.47;;;7.20;70.90;6.60;96968.00;;;;5115394;28;20216;-78
2022/04/22 05:42:55;;;;;;;2.17;2.07;;;7.20;71.00;6.60;96966.00;;;;5097360;28;20225;-77
2022/04/22 05:45:26;;;;;;;3.23;2.93;;;7.30;70.80;6.70;96963.00;;;;5115142;28;20236;-78
2022/04/22 05:47:57;;;;;;;1.63;1.53;;;7.30;71.60;6.70;96965.00;;;;5115244;28;20202;-78
2022/04/22 05:50:27;;;;;;;2.57;2.37;;;7.40;71.60;6.80;96967.00;;;;5115230;28;20194;-78
2022/04/22 05:52:54;;;;;;;2.17;2.03;;;7.50;71.80;6.90;96962.00;;;;5115172;28;20332;-77
2022/04/22 05:55:23;;;;;;;1.87;1.73;;;7.50;72.30;6.90;96960.00;;;;5115295;28;20281;-77
2022/04/22 05:57:52;;;;;;;2.93;2.73;;;7.60;73.20;7.00;96955.00;;;;5115106;28;20209;-78
2022/04/22 06:00:22;;;;;;;2.80;2.33;;;7.60;74.30;7.20;96964.00;;;;5115004;28;20198;-77
2022/04/22 06:02:48;;;;;;;2.33;2.20;;;7.80;74.30;7.30;96957.00;;;;5097021;28;20232;-78
2022/04/22 06:05:18;;;;;;;1.93;1.83;;;7.90;74.80;7.40;96965.00;;;;5114912;28;20664;-77
2022/04/22 06:07:45;;;;;;;2.43;2.23;;;8.00;75.00;7.60;96958.00;;;;5115036;28;20231;-78
2022/04/22 06:10:32;;;;;;;2.77;2.57;;;8.10;75.40;7.70;96961.00;;;;5115215;28;20194;-78
2022/04/22 06:13:00;;;;;;;3.30;3.10;;;8.20;75.50;7.80;96954.00;;;;5114893;28;20220;-78
2022/04/22 06:15:29;;;;;;;3.23;2.13;;;8.40;75.00;7.90;96958.00;;;;5114891;28;20541;-77
2022/04/22 06:17:56;;;;;;;1.47;1.33;;;8.40;74.90;7.90;96957.00;;;;5114938;28;20232;-79
2022/04/22 06:20:23;;;;;;;2.07;1.90;;;8.50;75.10;7.80;96951.00;;;;5114878;28;20228;-79
2022/04/22 06:22:54;;;;;;;3.83;2.37;;;8.50;74.90;8.00;96944.00;;;;5114721;28;20680;-77
2022/04/22 06:25:24;;;;;;;2.53;2.43;;;8.60;74.70;8.10;96945.00;;;;5114558;28;20210;-78
2022/04/22 06:27:51;;;;;;;2.97;2.57;;;8.60;74.40;8.20;96947.00;;;;5114621;28;20636;-77
2022/04/22 06:30:20;;;;;;;2.27;2.17;;;8.80;74.30;8.30;96947.00;;;;5114562;28;20209;-78
2022/04/22 06:32:49;;;;;;;2.13;2.00;;;8.80;73.70;8.40;96945.00;;;;5114340;28;20217;-78
2022/04/22 06:35:18;;;;;;;1.90;1.80;;;8.90;73.40;8.50;96949.00;;;;5114627;28;20242;-78
2022/04/22 06:37:47;;;;;;;2.93;2.67;;;9.00;73.10;8.50;96947.00;;;;5114598;28;20331;-77
2022/04/22 06:45:50;;;;;;;2.70;2.50;;;9.20;71.70;8.80;96934.00;;;;5114270;28;20300;-77
2022/04/22 06:48:21;;;;;;;2.23;2.13;;;9.30;71.20;8.70;96911.00;;;;5096502;28;20201;-79
2022/04/22 06:50:50;;;;;;;1.60;1.50;;;9.30;71.30;8.80;96931.00;;;;5114600;28;20186;-78
2022/04/22 06:53:19;;;;;;;2.23;2.03;;;9.40;71.30;8.90;96942.00;;;;5116243;28;20273;-79
2022/04/22 06:55:48;;;;;;;2.20;1.77;;;9.40;70.60;8.90;96930.00;;;;5114839;28;20194;-78
2022/04/22 06:58:19;;;;;;;3.23;2.93;;;9.40;70.60;8.90;96933.00;;;;5096849;28;20245;-78
2022/04/22 07:00:47;;;;;;;2.30;2.20;;;9.50;70.80;9.10;96931.00;;;;5096529;28;20202;-77
2022/04/22 07:03:17;;;;;;;9.23;2.83;;;9.60;70.10;9.20;96922.00;;;;5114189;28;20560;-78
2022/04/22 07:05:47;;;;;;;2.30;2.10;;;9.70;70.10;9.40;96924.00;;;;5114199;28;20669;-77
2022/04/22 07:08:17;;;;;;;2.47;2.33;;;9.80;69.60;9.50;96922.00;;;;5114623;28;20558;-79
2022/04/22 07:10:49;;;;;;;2.47;2.37;;;9.90;69.30;9.60;96930.00;;;;5114830;28;20270;-78
2022/04/22 07:13:18;;;;;;;2.07;1.97;;;10.10;68.30;9.60;96918.00;;;;5114316;28;20208;-79
2022/04/22 07:15:49;;;;;;;2.07;1.97;;;10.10;67.50;9.70;96920.00;;;;5113978;28;20198;-78
2022/04/22 07:18:17;;;;;;;3.73;2.77;;;10.20;67.20;9.80;96901.00;;;;5113975;28;20255;-78
2022/04/22 07:20:45;;;;;;;5.60;2.83;;;10.30;66.70;9.90;96911.00;;;;5113913;28;20229;-77
2022/04/22 07:23:13;;;;;;;3.37;3.13;;;10.40;65.90;10.00;96922.00;;;;5114826;28;20214;-78
2022/04/22 07:25:43;;;;;;;3.67;3.37;;;10.50;65.20;10.20;96920.00;;;;5117454;28;20190;-78
2022/04/22 07:28:13;;;;;;;2.20;2.10;;;10.60;64.80;10.30;96919.00;;;;5117505;28;20655;-79
2022/04/22 07:30:45;;;;;;;1.67;1.57;;;10.70;64.00;10.50;96921.00;;;;5117529;28;20213;-76
2022/04/22 07:33:13;;;;;;;2.40;2.30;;;10.90;63.10;10.70;96921.00;;;;5117295;28;20561;-77
2022/04/22 07:35:41;;;;;;;2.43;2.23;;;11.10;62.10;10.70;96915.00;;;;5117491;28;20221;-76
2022/04/22 07:38:10;;;;;;;2.90;2.60;;;11.10;61.50;10.70;96910.00;;;;5117239;28;20201;-78
2022/04/22 07:40:40;;;;;;;2.03;1.93;;;11.20;60.70;10.70;96919.00;;;;5117139;28;20539;-77
2022/04/22 07:48:43;;;;;;;2.50;2.33;;;11.10;60.00;10.70;96908.00;;;;5117083;28;20285;-76
2022/04/22 07:51:10;;;;;;;3.80;2.90;;;11.20;60.30;10.70;96915.00;;;;5099167;28;20288;-76
2022/04/22 07:53:37;;;;;;;1.27;1.27;;;11.20;60.70;10.80;96905.00;;;;5116899;28;20201;-76
2022/04/22 07:56:04;;;;;;;1.73;1.63;;;11.30;60.20;10.90;96900.00;;;;5116973;28;20571;-76
2022/04/22 07:58:31;;;;;;;2.47;2.33;;;11.40;59.10;11.10;96906.00;;;;5116746;28;20282;-77
2022/04/22 08:00:59;;;;;;;2.77;2.57;;;11.50;58.30;11.10;96912.00;;;;5117044;28;20202;-77
2022/04/22 08:03:26;;;;;;;1.90;1.80;;;11.60;58.40;11.10;96911.00;;;;5098915;28;20317;-76
2022/04/22 08:05:52;;;;;;;2.93;2.27;;;11.60;58.40;11.20;96904.00;;;;5116819;28;20249;-77
2022/04/22 08:08:21;;;;;;;2.13;2.00;;;11.80;57.60;11.30;96904.00;;;;5116812;28;20210;-77
2022/04/22 08:10:48;;;;;;;2.37;2.20;;;11.80;57.80;11.30;96895.00;;;;5116613;28;20273;-76
2022/04/22 08:13:15;;;;;;;1.70;1.60;;;11.80;57.40;11.40;96907.00;;;;5116714;28;20193;-74
2022/04/22 08:15:44;;;;;;;2.03;1.93;;;11.90;57.90;11.50;96905.00;;;;5116646;28;20259;-77
2022/04/22 08:18:11;;;;;;;2.50;2.30;;;11.90;57.10;11.50;96877.00;;;;5116462;28;20221;-76
2022/04/22 08:20:40;;;;;;;2.20;2.10;;;12.00;56.90;11.50;96899.00;;;;5116619;28;20205;-76
2022/04/22 08:23:06;;;;;;;1.87;1.77;;;12.10;56.10;11.60;96893.00;;;;5116450;28;20218;-74
2022/04/22 08:25:33;;;;;;;2.00;1.90;;;12.10;55.80;11.60;96902.00;;;;5098433;28;20229;-75
2022/04/22 08:27:59;;;;;;;2.37;2.17;;;12.10;55.30;11.70;96895.00;;;;5116417;28;20791;-76
2022/04/22 08:30:26;;;;;;;3.17;2.23;;;12.20;55.90;11.80;96893.00;;;;5116287;28;20280;-76
2022/04/22 08:32:52;;;;;;;3.57;2.13;;;12.30;56.60;11.80;96895.00;;;;5116477;28;20225;-76
2022/04/22 08:35:20;;;;;;;1.00;1.00;;;12.30;56.10;11.90;96891.00;;;;5115115;28;20206;-76
2022/04/22 08:37:47;;;;;;;2.27;2.07;;;12.40;55.50;12.00;96892.00;;;;5117393;28;20249;-75
2022/04/22 08:40:16;;;;;;;2.47;2.27;;;12.50;55.80;12.10;96896.00;;;;5115369;28;20210;-76
2022/04/22 08:42:46;;;;;;;1.93;1.83;;;12.60;54.90;12.20;96892.00;;;;5116111;28;20590;-79
2022/04/22 08:45:15;;;;;;;2.30;2.20;;;12.60;54.60;12.20;96891.00;;;;5116284;28;20197;-79
2022/04/22 08:50:29;;;;;;;4.83;2.03;;;12.70;53.10;12.10;96873.00;;;;5115799;28;20221;-77
2022/04/22 08:53:02;;;;;;;1.67;1.60;;;12.70;53.50;12.20;96873.00;;;;5098182;28;20221;-79
2022/04/22 08:55:33;;;;;;;3.93;3.33;;;12.70;53.50;12.20;96867.00;;;;5098015;28;20221;-78
2022/04/22 08:58:00;;;;;;;2.03;1.90;;;12.70;54.20;12.30;96874.00;;;;5115883;28;20236;-77
2022/04/22 09:00:33;;;;;;;2.70;2.47;;;12.80;54.20;12.40;96876.00;;;;5115952;28;20198;-77
2022/04/22 09:02:59;;;;;;;2.33;2.13;;;12.80;54.00;12.40;96870.00;;;;5115857;28;20305;-78
2022/04/22 09:05:29;;;;;;;5.43;2.80;;;12.90;53.80;12.50;96876.00;;;;5115800;28;20641;-77
2022/04/22 09:07:58;;;;;;;1.83;1.73;;;13.00;53.90;12.70;96870.00;;;;5116088;28;20267;-78
2022/04/22 09:10:24;;;;;;;4.10;2.67;;;13.10;52.00;12.80;96878.00;;;;5115861;28;20194;-77
2022/04/22 09:12:53;;;;;;;2.30;2.10;;;13.10;51.50;12.60;96875.00;;;;5115720;28;20198;-78
2022/04/22 09:15:22;;;;;;;2.23;2.03;;;13.10;51.90;12.70;96869.00;;;;5115696;28;20228;-79
2022/04/22 09:17:49;;;;;;;1.70;1.60;;;13.20;51.60;12.70;96869.00;;;;5115709;28;20197;-78
2022/04/22 09:20:16;;;;;;;2.83;2.50;;;13.20;51.30;12.80;96867.00;;;;5097756;28;20237;-78
2022/04/22 09:22:44;;;;;;;3.10;2.70;;;13.30;52.00;12.90;96870.00;;;;5115554;28;20209;-79
2022/04/22 09:25:11;;;;;;;1.70;1.60;;;13.40;51.80;13.10;96858.00;;;;5115668;28;20202;-78
2022/04/22 09:27:42;;;;;;;2.67;2.50;;;13.50;52.10;13.10;96854.00;;;;5097895;28;20194;-77
2022/04/22 09:30:11;;;;;;;2.70;2.50;;;13.60;51.80;13.40;96856.00;;;;5115686;28;20198;-76
2022/04/22 09:32:41;;;;;;;2.30;2.20;;;13.80;51.00;13.50;96846.00;;;;5115591;28;20194;-75
2022/04/22 09:35:10;;;;;;;2.67;2.47;;;13.90;50.40;13.40;96847.00;;;;5115431;28;20225;-78
2022/04/22 09:43:33;;;;;;;1.97;1.80;;;14.10;49.20;14.00;96836.00;;;;5115316;28;20532;-78
2022/04/22 09:46:03;;;;;;;2.33;2.17;;;14.30;50.10;14.10;96831.00;;;;5114965;28;20189;-77
2022/04/22 09:48:42;;;;;;;2.77;2.57;;;14.50;50.00;14.30;96842.00;;;;5115147;28;20218;-79
2022/04/22 09:51:24;;;;;;;2.70;2.50;;;14.80;47.20;14.40;96816.00;;;;5115458;28;20315;-78
2022/04/22 09:54:01;;;;;;;1.83;1.73;;;14.80;47.90;14.60;96796.00;;;;5115546;28;20222;-78
2022/04/22 09:56:28;;;;;;;3.20;2.97;;;15.00;46.90;14.60;96832.00;;;;5115103;28;20621;-77
2022/04/22 09:58:55;;;;;;;2.40;2.20;;;15.00;46.60;14.80;96842.00;;;;5097584;28;20209;-80
2022/04/22 10:01:25;;;;;;;5.87;3.33;;;15.10;46.80;14.90;96810.00;;;;5115035;28;20232;-79
2022/04/22 10:03:52;;;;;;;3.57;2.73;;;15.30;44.90;14.90;96830.00;;;;5114972;28;20247;-79
2022/04/22 10:06:19;;;;;;;1.60;1.50;;;15.30;46.10;15.10;96834.00;;;;5115051;28;20205;-80
2022/04/22 10:08:48;;;;;;;2.07;1.97;;;15.50;46.90;15.30;96824.00;;;;5097080;28;20206;-76
2022/04/22 10:11:18;;;;;;;2.53;1.90;;;15.70;45.80;15.60;96802.00;;;;5114982;28;20209;-79
2022/04/22 10:13:46;;;;;;;1.37;1.37;;;15.90;46.90;15.80;96837.00;;;;5115246;28;20625;-77
2022/04/22 10:16:14;;;;;;;1.70;1.60;;;16.10;43.70;15.70;96830.00;;;;5115504;28;20201;-77
2022/04/22 10:18:42;;;;;;;2.60;2.37;;;16.10;44.50;15.80;96819.00;;;;5116071;28;20281;-78
2022/04/22 10:21:10;;;;;;;1.80;1.70;;;16.20;42.20;15.90;96827.00;;;;5114706;28;20304;-76
2022/04/22 10:23:40;;;;;;;2.93;2.73;;;16.30;43.40;16.10;96826.00;;;;5114690;28;20241;-79
2022/04/22 10:26:06;;;;;;;2.20;2.00;;;16.30;43.20;16.10;96826.00;;;;5096716;28;20289;-77
2022/04/22 10:28:36;;;;;;;3.50;3.20;;;16.50;41.70;16.30;96818.00;;;;5114657;28;20201;-78
2022/04/22 10:31:04;;;;;;;1.77;1.67;;;16.70;41.30;16.60;96819.00;;;;5114458;28;20647;-76
2022/04/22 10:33:42;;;;;;;1.10;1.10;;;16.90;42.20;16.70;96815.00;;;;5114470;28;20186;-76
2022/04/22 10:36:14;;;;;;;1.37;1.37;;;17.10;39.50;16.70;96817.00;;;;5114720;28;20621;-78
2022/04/22 10:38:43;;;;;;;11.60;2.33;;;17.10;41.50;16.80;96827.00;;;;5097958;28;20259;-79
2022/04/22 10:41:20;;;;;;;2.23;2.03;;;17.20;40.00;16.90;96817.00;;;;5098178;28;20228;-77
2022/04/22 10:47:13;;;;;;;3.30;2.00;;;17.30;41.60;17.10;96822.00;;;;5097339;28;20601;-77
2022/04/22 10:49:38;;;;;;;1.90;1.80;;;17.50;40.50;17.40;96803.00;;;;5113390;28;20232;-80
2022/04/22 10:52:11;;;;;;;3.47;2.23;;;17.60;39.80;17.60;96809.00;;;;5114355;28;20212;-77
2022/04/22 10:55:12;;;;;;;3.37;3.03;;;17.90;39.50;17.40;96792.00;;;;5114272;28;20248;-79
2022/04/22 10:57:42;;;;;;;2.73;2.53;;;17.90;37.40;17.60;96802.00;;;;5113590;28;20204;-75
2022/04/22 11:00:28;;;;;;;1.60;1.50;;;18.00;39.10;18.10;96813.00;;;;5096260;28;20553;-77
2022/04/22 11:03:13;;;;;;;1.70;1.60;;;18.30;38.30;18.30;96812.00;;;;5114072;28;20213;-79
2022/04/22 11:05:46;;;;;;;1.63;1.50;;;18.50;37.70;18.40;96781.00;;;;5114155;28;20287;-77
2022/04/22 11:08:25;;;;;;;3.23;1.97;;;18.70;38.70;18.60;96797.00;;;;5114133;28;20277;-75
2022/04/22 11:11:22;;;;;;;1.37;1.37;;;18.80;35.70;18.30;96796.00;;;;5114203;28;20205;-77
2022/04/22 11:13:51;;;;;;;2.17;2.07;;;18.80;36.10;18.50;96782.00;;;;5114004;28;20641;-77
2022/04/22 11:16:29;;;;;;;2.17;1.83;;;18.80;36.60;18.80;96782.00;;;;5113810;28;20201;-74
2022/04/22 11:19:24;;;;;;;1.83;1.73;;;19.10;35.90;18.80;96785.00;;;;5113820;28;20221;-75
2022/04/22 11:21:53;;;;;;;2.73;2.53;;;19.10;36.40;19.00;96775.00;;;;5114098;28;20194;-75
2022/04/22 11:24:22;;;;;;;2.90;2.67;;;19.30;36.30;19.40;96775.00;;;;5095752;28;20308;-74
2022/04/22 11:26:49;;;;;;;2.13;2.03;;;19.60;36.00;19.60;96777.00;;;;5113809;28;20193;-75
2022/04/22 11:29:17;;;;;;;1.83;1.73;;;19.70;35.50;19.60;96771.00;;;;5113877;28;20194;-74
2022/04/22 11:31:59;;;;;;;3.73;2.17;;;19.90;34.50;19.80;96770.00;;;;5096065;28;20221;-74
2022/04/22 11:35:14;;;;;;;2.63;2.43;;;20.00;34.50;19.80;96768.00;;;;5113845;28;20209;-73
2022/04/22 11:37:43;;;;;;;2.93;2.73;;;20.00;33.80;19.90;96765.00;;;;5113602;28;20282;-74
2022/04/22 11:40:10;;;;;;;2.93;2.03;;;20.20;32.50;20.30;96773.00;;;;5113718;28;20194;-76
2022/04/22 11:42:44;;;;;;;1.20;1.20;;;20.40;34.80;20.40;96781.00;;;;5113581;28;20280;-74
2022/04/22 11:45:14;;;;;;;2.20;2.00;;;20.60;31.50;20.40;96772.00;;;;5095820;28;20305;-74
2022/04/22 11:47:41;;;;;;;1.07;1.07;;;20.60;32.80;20.30;96766.00;;;;5113597;28;20293;-75
2022/04/22 11:50:18;;;;;;;1.93;1.83;;;20.60;32.50;20.50;96759.00;;;;5095758;28;20213;-76
2022/04/22 11:52:56;;;;;;;1.73;1.63;;;20.70;33.40;20.30;96776.00;;;;5095587;28;20193;-75
2022/04/22 11:55:24;;;;;;;2.63;2.03;;;20.60;32.50;20.30;96765.00;;;;5113539;28;20194;-76
2022/04/22 11:57:50;;;;;;;2.03;1.87;;;20.60;32.50;20.70;96764.00;;;;5113436;28;20225;-76
2022/04/22 12:05:50;;;;;;;2.27;2.17;;;21.40;32.80;21.30;96747.00;;;;5113250;28;20710;-74
2022/04/22 12:08:17;;;;;;;1.90;1.80;;;21.50;31.60;21.70;96753.00;;;;5113384;28;20230;-75
2022/04/22 12:10:46;;;;;;;2.40;2.20;;;21.70;31.00;21.40;96761.00;;;;5116277;28;20308;-78